sensor_id;sensor_type;location;lat;lon;timestamp;P1;durP1;ratioP1;P2;durP2;ratioP2
12814;SDS011;6472;52.328;13.070;2023-07-31T00:00:15;2.27;;;1.97;;
12814;SDS011;6472;52.328;13.070;2023-07-31T00:02:44;2.60;;;2.20;;
12814;SDS011;6472;52.328;13.070;2023-07-31T00:05:13;3.17;;;2.67;;
12814;SDS011;6472;52.328;13.070;2023-07-31T00:07:41;3.40;;;2.17;;
12814;SDS011;6472;52.328;13.070;2023-07-31T00:10:09;4.57;;;2.43;;
12814;SDS011;6472;52.328;13.070;2023-07-31T00:12:38;5.13;;;2.53;;
12814;SDS011;6472;52.328;13.070;2023-07-31T00:15:06;2.20;;;2.10;;
12814;SDS011;6472;52.328;13.070;2023-07-31T00:17:35;4.53;;;2.37;;
12814;SDS011;6472;52.328;13.070;2023-07-31T00:20:05;2.60;;;2.40;;
12814;SDS011;6472;52.328;13.070;2023-07-31T00:22:35;3.57;;;2.60;;
12814;SDS011;6472;52.328;13.070;2023-07-31T00:25:03;2.30;;;2.10;;
12814;SDS011;6472;52.328;13.070;2023-07-31T00:27:32;2.97;;;2.20;;
12814;SDS011;6472;52.328;13.070;2023-07-31T00:30:00;3.80;;;2.33;;
12814;SDS011;6472;52.328;13.070;2023-07-31T00:32:28;3.37;;;2.27;;
12814;SDS011;6472;52.328;13.070;2023-07-31T00:34:57;4.43;;;2.20;;
12814;SDS011;6472;52.328;13.070;2023-07-31T00:37:27;3.30;;;2.33;;
12814;SDS011;6472;52.328;13.070;2023-07-31T00:39:55;2.87;;;2.13;;
12814;SDS011;6472;52.328;13.070;2023-07-31T00:42:23;2.80;;;2.40;;
12814;SDS011;6472;52.328;13.070;2023-07-31T00:44:51;5.90;;;2.63;;
12814;SDS011;6472;52.328;13.070;2023-07-31T00:47:19;1.93;;;1.80;;
12814;SDS011;6472;52.328;13.070;2023-07-31T00:49:47;3.23;;;2.33;;
12814;SDS011;6472;52.328;13.070;2023-07-31T00:52:15;5.27;;;2.57;;
12814;SDS011;6472;52.328;13.070;2023-07-31T00:54:45;5.07;;;2.40;;
12814;SDS011;6472;52.328;13.070;2023-07-31T00:57:14;2.33;;;2.13;;
12814;SDS011;6472;52.328;13.070;2023-07-31T00:59:42;2.83;;;2.17;;
12814;SDS011;6472;52.328;13.070;2023-07-31T01:02:10;2.93;;;2.47;;
12814;SDS011;6472;52.328;13.070;2023-07-31T01:04:38;3.07;;;2.47;;
12814;SDS011;6472;52.328;13.070;2023-07-31T01:07:17;2.87;;;2.23;;
12814;SDS011;6472;52.328;13.070;2023-07-31T01:09:57;4.33;;;2.23;;
12814;SDS011;6472;52.328;13.070;2023-07-31T01:12:30;4.67;;;2.40;;
12814;SDS011;6472;52.328;13.070;2023-07-31T01:15:03;5.60;;;2.53;;
12814;SDS011;6472;52.328;13.070;2023-07-31T01:17:32;4.33;;;2.70;;
12814;SDS011;6472;52.328;13.070;2023-07-31T01:20:01;3.37;;;2.97;;
12814;SDS011;6472;52.328;13.070;2023-07-31T01:25:56;3.03;;;2.53;;
12814;SDS011;6472;52.328;13.070;2023-07-31T01:28:32;2.37;;;2.10;;
12814;SDS011;6472;52.328;13.070;2023-07-31T01:31:06;3.13;;;2.03;;
12814;SDS011;6472;52.328;13.070;2023-07-31T01:33:37;3.60;;;2.50;;
12814;SDS011;6472;52.328;13.070;2023-07-31T01:36:05;3.03;;;2.53;;
12814;SDS011;6472;52.328;13.070;2023-07-31T01:38:34;4.53;;;2.70;;
12814;SDS011;6472;52.328;13.070;2023-07-31T01:41:04;3.80;;;2.27;;
12814;SDS011;6472;52.328;13.070;2023-07-31T01:43:32;3.40;;;3.10;;
12814;SDS011;6472;52.328;13.070;2023-07-31T01:46:00;3.10;;;2.60;;
12814;SDS011;6472;52.328;13.070;2023-07-31T01:48:28;5.23;;;2.83;;
12814;SDS011;6472;52.328;13.070;2023-07-31T01:51:02;4.40;;;3.20;;
12814;SDS011;6472;52.328;13.070;2023-07-31T01:53:30;2.60;;;2.40;;
12814;SDS011;6472;52.328;13.070;2023-07-31T01:55:59;3.33;;;2.87;;
12814;SDS011;6472;52.328;13.070;2023-07-31T01:58:28;4.38;;;2.90;;
12814;SDS011;6472;52.328;13.070;2023-07-31T02:00:56;2.93;;;2.67;;
12814;SDS011;6472;52.328;13.070;2023-07-31T02:03:24;5.27;;;2.93;;
12814;SDS011;6472;52.328;13.070;2023-07-31T02:05:53;4.73;;;2.67;;
12814;SDS011;6472;52.328;13.070;2023-07-31T02:08:23;2.73;;;2.40;;
12814;SDS011;6472;52.328;13.070;2023-07-31T02:10:51;6.27;;;3.33;;
12814;SDS011;6472;52.328;13.070;2023-07-31T02:13:19;3.50;;;2.83;;
12814;SDS011;6472;52.328;13.070;2023-07-31T02:15:49;4.23;;;2.70;;
12814;SDS011;6472;52.328;13.070;2023-07-31T02:18:17;6.07;;;3.20;;
12814;SDS011;6472;52.328;13.070;2023-07-31T02:20:48;4.97;;;2.63;;
12814;SDS011;6472;52.328;13.070;2023-07-31T02:23:17;3.30;;;3.00;;
12814;SDS011;6472;52.328;13.070;2023-07-31T02:25:45;3.37;;;3.10;;
12814;SDS011;6472;52.328;13.070;2023-07-31T02:28:13;5.33;;;3.03;;
12814;SDS011;6472;52.328;13.070;2023-07-31T02:30:43;3.67;;;2.97;;
12814;SDS011;6472;52.328;13.070;2023-07-31T02:33:14;2.70;;;2.50;;
12814;SDS011;6472;52.328;13.070;2023-07-31T02:35:42;3.37;;;3.07;;
12814;SDS011;6472;52.328;13.070;2023-07-31T02:38:10;3.17;;;2.80;;
12814;SDS011;6472;52.328;13.070;2023-07-31T02:40:38;4.17;;;2.87;;
12814;SDS011;6472;52.328;13.070;2023-07-31T02:43:07;3.73;;;2.83;;
12814;SDS011;6472;52.328;13.070;2023-07-31T02:45:35;3.57;;;3.10;;
12814;SDS011;6472;52.328;13.070;2023-07-31T02:48:04;3.40;;;2.97;;
12814;SDS011;6472;52.328;13.070;2023-07-31T02:50:34;3.90;;;2.73;;
12814;SDS011;6472;52.328;13.070;2023-07-31T02:53:02;3.27;;;3.00;;
12814;SDS011;6472;52.328;13.070;2023-07-31T02:55:30;5.67;;;3.57;;
12814;SDS011;6472;52.328;13.070;2023-07-31T02:57:58;5.00;;;2.83;;
12814;SDS011;6472;52.328;13.070;2023-07-31T03:00:26;3.53;;;3.23;;
12814;SDS011;6472;52.328;13.070;2023-07-31T03:02:55;4.90;;;3.33;;
12814;SDS011;6472;52.328;13.070;2023-07-31T03:05:23;4.63;;;3.00;;
12814;SDS011;6472;52.328;13.070;2023-07-31T03:07:52;4.67;;;2.97;;
12814;SDS011;6472;52.328;13.070;2023-07-31T03:10:20;8.50;;;3.80;;
12814;SDS011;6472;52.328;13.070;2023-07-31T03:12:48;5.97;;;3.50;;
12814;SDS011;6472;52.328;13.070;2023-07-31T03:15:16;3.50;;;3.23;;
12814;SDS011;6472;52.328;13.070;2023-07-31T03:17:44;4.03;;;3.53;;
12814;SDS011;6472;52.328;13.070;2023-07-31T03:20:12;3.63;;;3.30;;
12814;SDS011;6472;52.328;13.070;2023-07-31T03:22:45;4.97;;;3.47;;
12814;SDS011;6472;52.328;13.070;2023-07-31T03:25:14;3.50;;;3.20;;
12814;SDS011;6472;52.328;13.070;2023-07-31T03:27:42;3.57;;;2.80;;
12814;SDS011;6472;52.328;13.070;2023-07-31T03:30:10;4.93;;;2.93;;
12814;SDS011;6472;52.328;13.070;2023-07-31T03:32:38;3.60;;;2.97;;
12814;SDS011;6472;52.328;13.070;2023-07-31T03:35:06;4.63;;;3.30;;
12814;SDS011;6472;52.328;13.070;2023-07-31T03:37:35;3.70;;;3.40;;
12814;SDS011;6472;52.328;13.070;2023-07-31T03:40:03;4.00;;;3.13;;
12814;SDS011;6472;52.328;13.070;2023-07-31T03:42:33;3.27;;;2.60;;
12814;SDS011;6472;52.328;13.070;2023-07-31T03:45:01;4.90;;;3.50;;
12814;SDS011;6472;52.328;13.070;2023-07-31T03:47:29;4.97;;;3.20;;
12814;SDS011;6472;52.328;13.070;2023-07-31T03:49:57;3.50;;;3.20;;
12814;SDS011;6472;52.328;13.070;2023-07-31T03:52:25;3.50;;;3.20;;
12814;SDS011;6472;52.328;13.070;2023-07-31T03:54:53;4.43;;;2.83;;
12814;SDS011;6472;52.328;13.070;2023-07-31T03:57:21;3.57;;;2.80;;
12814;SDS011;6472;52.328;13.070;2023-07-31T03:59:52;4.10;;;3.33;;
12814;SDS011;6472;52.328;13.070;2023-07-31T04:02:20;5.33;;;2.77;;
12814;SDS011;6472;52.328;13.070;2023-07-31T04:04:48;4.20;;;2.97;;
12814;SDS011;6472;52.328;13.070;2023-07-31T04:07:16;6.03;;;3.17;;
12814;SDS011;6472;52.328;13.070;2023-07-31T04:09:44;6.10;;;3.30;;
12814;SDS011;6472;52.328;13.070;2023-07-31T04:12:12;3.15;;;2.83;;
12814;SDS011;6472;52.328;13.070;2023-07-31T04:14:40;6.40;;;2.67;;
12814;SDS011;6472;52.328;13.070;2023-07-31T04:17:09;3.73;;;3.43;;
12814;SDS011;6472;52.328;13.070;2023-07-31T04:19:37;3.83;;;3.37;;
12814;SDS011;6472;52.328;13.070;2023-07-31T04:22:05;4.40;;;2.67;;
12814;SDS011;6472;52.328;13.070;2023-07-31T04:24:34;3.53;;;3.23;;
12814;SDS011;6472;52.328;13.070;2023-07-31T04:27:02;6.30;;;3.63;;
12814;SDS011;6472;52.328;13.070;2023-07-31T04:29:30;3.23;;;2.93;;
12814;SDS011;6472;52.328;13.070;2023-07-31T04:31:58;4.03;;;3.22;;
12814;SDS011;6472;52.328;13.070;2023-07-31T04:34:27;4.17;;;3.77;;
12814;SDS011;6472;52.328;13.070;2023-07-31T04:36:55;4.07;;;3.03;;
12814;SDS011;6472;52.328;13.070;2023-07-31T04:39:23;3.53;;;3.20;;
12814;SDS011;6472;52.328;13.070;2023-07-31T04:41:51;3.97;;;2.93;;
12814;SDS011;6472;52.328;13.070;2023-07-31T04:44:19;4.17;;;3.73;;
12814;SDS011;6472;52.328;13.070;2023-07-31T04:46:47;5.13;;;3.63;;
12814;SDS011;6472;52.328;13.070;2023-07-31T04:49:15;5.13;;;3.27;;
12814;SDS011;6472;52.328;13.070;2023-07-31T04:51:45;9.95;;;3.83;;
12814;SDS011;6472;52.328;13.070;2023-07-31T04:54:13;3.40;;;3.10;;
12814;SDS011;6472;52.328;13.070;2023-07-31T04:56:41;5.07;;;3.17;;
12814;SDS011;6472;52.328;13.070;2023-07-31T04:59:09;7.72;;;3.78;;
12814;SDS011;6472;52.328;13.070;2023-07-31T05:01:37;3.23;;;2.77;;
12814;SDS011;6472;52.328;13.070;2023-07-31T05:04:05;4.53;;;3.30;;
12814;SDS011;6472;52.328;13.070;2023-07-31T05:06:33;7.23;;;2.90;;
12814;SDS011;6472;52.328;13.070;2023-07-31T05:09:02;3.37;;;2.60;;
12814;SDS011;6472;52.328;13.070;2023-07-31T05:11:30;3.33;;;2.67;;
12814;SDS011;6472;52.328;13.070;2023-07-31T05:13:58;9.63;;;2.93;;
12814;SDS011;6472;52.328;13.070;2023-07-31T05:16:26;4.70;;;3.30;;
12814;SDS011;6472;52.328;13.070;2023-07-31T05:18:56;4.20;;;2.60;;
12814;SDS011;6472;52.328;13.070;2023-07-31T05:21:23;4.57;;;2.73;;
12814;SDS011;6472;52.328;13.070;2023-07-31T05:23:51;3.20;;;2.80;;
12814;SDS011;6472;52.328;13.070;2023-07-31T05:26:21;2.73;;;2.17;;
12814;SDS011;6472;52.328;13.070;2023-07-31T05:28:49;3.10;;;2.57;;
12814;SDS011;6472;52.328;13.070;2023-07-31T05:31:17;7.22;;;3.17;;
12814;SDS011;6472;52.328;13.070;2023-07-31T05:33:45;4.67;;;2.60;;
12814;SDS011;6472;52.328;13.070;2023-07-31T05:36:13;5.80;;;2.53;;
12814;SDS011;6472;52.328;13.070;2023-07-31T05:38:41;5.03;;;2.85;;
12814;SDS011;6472;52.328;13.070;2023-07-31T05:41:10;3.90;;;2.50;;
12814;SDS011;6472;52.328;13.070;2023-07-31T05:43:40;4.53;;;2.37;;
12814;SDS011;6472;52.328;13.070;2023-07-31T05:46:09;3.55;;;2.20;;
12814;SDS011;6472;52.328;13.070;2023-07-31T05:48:38;3.70;;;2.60;;
12814;SDS011;6472;52.328;13.070;2023-07-31T05:51:06;3.33;;;2.33;;
12814;SDS011;6472;52.328;13.070;2023-07-31T05:53:34;2.22;;;2.00;;
12814;SDS011;6472;52.328;13.070;2023-07-31T05:56:06;2.77;;;2.00;;
12814;SDS011;6472;52.328;13.070;2023-07-31T05:58:34;3.80;;;2.40;;
12814;SDS011;6472;52.328;13.070;2023-07-31T06:01:04;3.63;;;2.13;;
12814;SDS011;6472;52.328;13.070;2023-07-31T06:03:32;2.20;;;1.97;;
12814;SDS011;6472;52.328;13.070;2023-07-31T06:06:00;3.30;;;2.20;;
12814;SDS011;6472;52.328;13.070;2023-07-31T06:08:28;6.22;;;2.22;;
12814;SDS011;6472;52.328;13.070;2023-07-31T06:10:57;5.20;;;2.47;;
12814;SDS011;6472;52.328;13.070;2023-07-31T06:13:24;8.73;;;2.60;;
12814;SDS011;6472;52.328;13.070;2023-07-31T06:15:52;5.00;;;2.40;;
12814;SDS011;6472;52.328;13.070;2023-07-31T06:18:22;4.80;;;2.40;;
12814;SDS011;6472;52.328;13.070;2023-07-31T06:20:50;3.30;;;2.70;;
12814;SDS011;6472;52.328;13.070;2023-07-31T06:23:20;7.07;;;2.10;;
12814;SDS011;6472;52.328;13.070;2023-07-31T06:25:48;2.75;;;1.90;;
12814;SDS011;6472;52.328;13.070;2023-07-31T06:28:16;6.15;;;2.42;;
12814;SDS011;6472;52.328;13.070;2023-07-31T06:30:44;2.22;;;1.95;;
12814;SDS011;6472;52.328;13.070;2023-07-31T06:33:12;3.00;;;2.05;;
12814;SDS011;6472;52.328;13.070;2023-07-31T06:35:41;4.25;;;2.53;;
12814;SDS011;6472;52.328;13.070;2023-07-31T06:38:10;6.50;;;2.42;;
12814;SDS011;6472;52.328;13.070;2023-07-31T06:40:37;4.80;;;2.70;;
12814;SDS011;6472;52.328;13.070;2023-07-31T06:43:06;2.67;;;2.40;;
12814;SDS011;6472;52.328;13.070;2023-07-31T06:45:35;3.30;;;2.17;;
12814;SDS011;6472;52.328;13.070;2023-07-31T06:48:04;5.28;;;2.38;;
12814;SDS011;6472;52.328;13.070;2023-07-31T06:50:32;4.03;;;2.03;;
12814;SDS011;6472;52.328;13.070;2023-07-31T06:53:02;3.63;;;2.40;;
12814;SDS011;6472;52.328;13.070;2023-07-31T06:55:30;3.13;;;2.20;;
12814;SDS011;6472;52.328;13.070;2023-07-31T06:57:58;2.05;;;1.90;;
12814;SDS011;6472;52.328;13.070;2023-07-31T07:00:26;3.83;;;2.13;;
12814;SDS011;6472;52.328;13.070;2023-07-31T07:02:55;3.20;;;2.08;;
12814;SDS011;6472;52.328;13.070;2023-07-31T07:05:23;2.45;;;2.25;;
12814;SDS011;6472;52.328;13.070;2023-07-31T07:07:51;7.57;;;2.70;;
12814;SDS011;6472;52.328;13.070;2023-07-31T07:10:20;2.30;;;2.10;;
12814;SDS011;6472;52.328;13.070;2023-07-31T07:12:49;3.40;;;2.75;;
12814;SDS011;6472;52.328;13.070;2023-07-31T07:15:17;2.50;;;2.30;;
12814;SDS011;6472;52.328;13.070;2023-07-31T07:17:45;5.75;;;2.95;;
12814;SDS011;6472;52.328;13.070;2023-07-31T07:20:13;5.20;;;2.35;;
12814;SDS011;6472;52.328;13.070;2023-07-31T07:22:41;3.00;;;2.30;;
12814;SDS011;6472;52.328;13.070;2023-07-31T07:25:10;5.35;;;2.42;;
12814;SDS011;6472;52.328;13.070;2023-07-31T07:27:39;5.05;;;2.50;;
12814;SDS011;6472;52.328;13.070;2023-07-31T07:30:07;3.97;;;2.45;;
12814;SDS011;6472;52.328;13.070;2023-07-31T07:32:36;4.30;;;2.40;;
12814;SDS011;6472;52.328;13.070;2023-07-31T07:35:05;3.70;;;2.42;;
12814;SDS011;6472;52.328;13.070;2023-07-31T07:37:33;4.82;;;2.95;;
12814;SDS011;6472;52.328;13.070;2023-07-31T07:40:01;4.60;;;3.70;;
12814;SDS011;6472;52.328;13.070;2023-07-31T07:42:30;3.38;;;3.03;;
12814;SDS011;6472;52.328;13.070;2023-07-31T07:44:59;3.92;;;3.03;;
12814;SDS011;6472;52.328;13.070;2023-07-31T07:47:27;7.88;;;3.10;;
12814;SDS011;6472;52.328;13.070;2023-07-31T07:49:55;4.03;;;2.70;;
12814;SDS011;6472;52.328;13.070;2023-07-31T07:52:23;4.43;;;2.53;;
12814;SDS011;6472;52.328;13.070;2023-07-31T07:54:51;3.78;;;2.75;;
12814;SDS011;6472;52.328;13.070;2023-07-31T07:57:19;7.53;;;3.33;;
12814;SDS011;6472;52.328;13.070;2023-07-31T07:59:47;5.93;;;2.80;;
12814;SDS011;6472;52.328;13.070;2023-07-31T08:02:17;2.55;;;2.33;;
12814;SDS011;6472;52.328;13.070;2023-07-31T08:04:45;2.97;;;2.67;;
12814;SDS011;6472;52.328;13.070;2023-07-31T08:07:13;3.15;;;2.85;;
12814;SDS011;6472;52.328;13.070;2023-07-31T08:09:41;3.53;;;2.60;;
12814;SDS011;6472;52.328;13.070;2023-07-31T08:12:09;3.92;;;2.63;;
12814;SDS011;6472;52.328;13.070;2023-07-31T08:14:37;3.85;;;2.55;;
12814;SDS011;6472;52.328;13.070;2023-07-31T08:17:05;3.50;;;2.67;;
12814;SDS011;6472;52.328;13.070;2023-07-31T08:19:34;3.70;;;2.63;;
12814;SDS011;6472;52.328;13.070;2023-07-31T08:22:02;3.72;;;2.28;;
12814;SDS011;6472;52.328;13.070;2023-07-31T08:24:31;2.30;;;2.10;;
12814;SDS011;6472;52.328;13.070;2023-07-31T08:26:59;4.20;;;2.60;;
12814;SDS011;6472;52.328;13.070;2023-07-31T08:29:27;3.63;;;1.77;;
12814;SDS011;6472;52.328;13.070;2023-07-31T08:31:55;2.20;;;2.00;;
12814;SDS011;6472;52.328;13.070;2023-07-31T08:34:23;2.97;;;1.73;;
12814;SDS011;6472;52.328;13.070;2023-07-31T08:36:52;1.85;;;1.67;;
12814;SDS011;6472;52.328;13.070;2023-07-31T08:39:20;3.85;;;1.48;;
12814;SDS011;6472;52.328;13.070;2023-07-31T08:41:48;1.70;;;1.60;;
12814;SDS011;6472;52.328;13.070;2023-07-31T08:44:16;0.98;;;0.98;;
12814;SDS011;6472;52.328;13.070;2023-07-31T08:46:46;2.05;;;1.08;;
12814;SDS011;6472;52.328;13.070;2023-07-31T08:49:16;1.48;;;1.38;;
12814;SDS011;6472;52.328;13.070;2023-07-31T08:51:45;1.23;;;1.20;;
12814;SDS011;6472;52.328;13.070;2023-07-31T08:54:18;1.17;;;1.10;;
12814;SDS011;6472;52.328;13.070;2023-07-31T08:56:46;0.85;;;0.80;;
12814;SDS011;6472;52.328;13.070;2023-07-31T08:59:14;2.00;;;1.08;;
12814;SDS011;6472;52.328;13.070;2023-07-31T09:01:47;1.50;;;1.17;;
12814;SDS011;6472;52.328;13.070;2023-07-31T09:04:20;0.90;;;0.90;;
12814;SDS011;6472;52.328;13.070;2023-07-31T09:06:50;1.58;;;0.90;;
12814;SDS011;6472;52.328;13.070;2023-07-31T09:09:23;0.77;;;0.77;;
12814;SDS011;6472;52.328;13.070;2023-07-31T09:11:51;1.33;;;1.00;;
12814;SDS011;6472;52.328;13.070;2023-07-31T09:18:07;1.95;;;1.50;;
12814;SDS011;6472;52.328;13.070;2023-07-31T09:20:36;3.25;;;2.30;;
12814;SDS011;6472;52.328;13.070;2023-07-31T09:23:05;3.72;;;2.38;;
12814;SDS011;6472;52.328;13.070;2023-07-31T09:25:37;4.40;;;2.50;;
12814;SDS011;6472;52.328;13.070;2023-07-31T09:28:06;2.65;;;2.45;;
12814;SDS011;6472;52.328;13.070;2023-07-31T09:30:45;3.35;;;2.80;;
12814;SDS011;6472;52.328;13.070;2023-07-31T09:33:15;4.03;;;2.92;;
12814;SDS011;6472;52.328;13.070;2023-07-31T09:35:44;4.68;;;3.25;;
12814;SDS011;6472;52.328;13.070;2023-07-31T09:38:12;3.97;;;3.22;;
12814;SDS011;6472;52.328;13.070;2023-07-31T09:40:44;4.00;;;2.90;;
12814;SDS011;6472;52.328;13.070;2023-07-31T09:43:14;4.25;;;3.10;;
12814;SDS011;6472;52.328;13.070;2023-07-31T09:45:45;3.80;;;2.92;;
12814;SDS011;6472;52.328;13.070;2023-07-31T09:48:14;6.38;;;3.00;;
12814;SDS011;6472;52.328;13.070;2023-07-31T09:50:43;3.15;;;2.67;;
12814;SDS011;6472;52.328;13.070;2023-07-31T09:53:13;5.60;;;3.55;;
12814;SDS011;6472;52.328;13.070;2023-07-31T09:55:44;6.85;;;3.42;;
12814;SDS011;6472;52.328;13.070;2023-07-31T09:58:12;6.10;;;3.97;;
12814;SDS011;6472;52.328;13.070;2023-07-31T10:00:40;3.88;;;2.67;;
12814;SDS011;6472;52.328;13.070;2023-07-31T10:03:09;4.57;;;3.53;;
12814;SDS011;6472;52.328;13.070;2023-07-31T10:05:39;7.18;;;3.53;;
12814;SDS011;6472;52.328;13.070;2023-07-31T10:08:10;5.38;;;3.35;;
12814;SDS011;6472;52.328;13.070;2023-07-31T10:10:42;5.22;;;3.55;;
12814;SDS011;6472;52.328;13.070;2023-07-31T10:13:13;5.75;;;3.90;;
12814;SDS011;6472;52.328;13.070;2023-07-31T10:15:42;5.45;;;3.45;;
12814;SDS011;6472;52.328;13.070;2023-07-31T10:18:10;7.07;;;3.67;;
12814;SDS011;6472;52.328;13.070;2023-07-31T10:20:39;5.78;;;3.38;;
12814;SDS011;6472;52.328;13.070;2023-07-31T10:23:08;4.47;;;3.35;;
12814;SDS011;6472;52.328;13.070;2023-07-31T10:25:37;4.68;;;3.65;;
12814;SDS011;6472;52.328;13.070;2023-07-31T10:28:07;5.18;;;3.10;;
12814;SDS011;6472;52.328;13.070;2023-07-31T10:30:36;3.83;;;3.40;;
12814;SDS011;6472;52.328;13.070;2023-07-31T10:33:06;7.15;;;3.60;;
12814;SDS011;6472;52.328;13.070;2023-07-31T10:35:35;4.80;;;3.00;;
12814;SDS011;6472;52.328;13.070;2023-07-31T10:38:09;4.53;;;3.08;;
12814;SDS011;6472;52.328;13.070;2023-07-31T10:40:38;6.85;;;2.83;;
12814;SDS011;6472;52.328;13.070;2023-07-31T10:43:07;4.80;;;2.67;;
12814;SDS011;6472;52.328;13.070;2023-07-31T10:45:38;4.38;;;2.85;;
12814;SDS011;6472;52.328;13.070;2023-07-31T10:48:07;4.35;;;2.90;;
12814;SDS011;6472;52.328;13.070;2023-07-31T10:50:45;3.63;;;2.72;;
12814;SDS011;6472;52.328;13.070;2023-07-31T10:53:22;3.45;;;2.47;;
12814;SDS011;6472;52.328;13.070;2023-07-31T10:55:51;4.05;;;2.63;;
12814;SDS011;6472;52.328;13.070;2023-07-31T10:58:21;3.38;;;2.63;;
12814;SDS011;6472;52.328;13.070;2023-07-31T11:00:49;3.08;;;2.78;;
12814;SDS011;6472;52.328;13.070;2023-07-31T11:03:24;5.05;;;3.15;;
12814;SDS011;6472;52.328;13.070;2023-07-31T11:05:59;2.97;;;2.25;;
12814;SDS011;6472;52.328;13.070;2023-07-31T11:08:30;3.88;;;2.85;;
12814;SDS011;6472;52.328;13.070;2023-07-31T11:11:05;4.70;;;2.17;;
12814;SDS011;6472;52.328;13.070;2023-07-31T11:13:41;5.80;;;2.53;;
12814;SDS011;6472;52.328;13.070;2023-07-31T11:16:11;5.95;;;2.47;;
12814;SDS011;6472;52.328;13.070;2023-07-31T11:18:40;4.13;;;2.55;;
12814;SDS011;6472;52.328;13.070;2023-07-31T11:21:11;3.88;;;2.22;;
12814;SDS011;6472;52.328;13.070;2023-07-31T11:23:40;4.78;;;2.40;;
12814;SDS011;6472;52.328;13.070;2023-07-31T11:26:08;3.15;;;2.42;;
12814;SDS011;6472;52.328;13.070;2023-07-31T11:28:37;5.22;;;2.80;;
12814;SDS011;6472;52.328;13.070;2023-07-31T11:31:10;5.85;;;2.38;;
12814;SDS011;6472;52.328;13.070;2023-07-31T11:33:38;2.47;;;2.10;;
12814;SDS011;6472;52.328;13.070;2023-07-31T11:36:06;3.90;;;2.20;;
12814;SDS011;6472;52.328;13.070;2023-07-31T11:38:41;3.25;;;2.30;;
12814;SDS011;6472;52.328;13.070;2023-07-31T11:41:09;5.25;;;2.47;;
12814;SDS011;6472;52.328;13.070;2023-07-31T11:43:37;3.92;;;2.53;;
12814;SDS011;6472;52.328;13.070;2023-07-31T11:46:05;4.03;;;2.65;;
12814;SDS011;6472;52.328;13.070;2023-07-31T11:48:35;2.83;;;2.30;;
12814;SDS011;6472;52.328;13.070;2023-07-31T11:51:04;3.30;;;2.47;;
12814;SDS011;6472;52.328;13.070;2023-07-31T11:53:38;4.82;;;2.40;;
12814;SDS011;6472;52.328;13.070;2023-07-31T11:56:09;5.80;;;2.55;;
12814;SDS011;6472;52.328;13.070;2023-07-31T11:58:39;2.22;;;2.03;;
12814;SDS011;6472;52.328;13.070;2023-07-31T12:01:09;3.85;;;2.28;;
12814;SDS011;6472;52.328;13.070;2023-07-31T12:03:39;6.35;;;2.17;;
12814;SDS011;6472;52.328;13.070;2023-07-31T12:06:09;3.53;;;2.17;;
12814;SDS011;6472;52.328;13.070;2023-07-31T12:08:37;3.17;;;2.05;;
12814;SDS011;6472;52.328;13.070;2023-07-31T12:11:05;3.17;;;2.13;;
12814;SDS011;6472;52.328;13.070;2023-07-31T12:13:35;4.68;;;2.88;;
12814;SDS011;6472;52.328;13.070;2023-07-31T12:16:04;3.67;;;2.22;;
12814;SDS011;6472;52.328;13.070;2023-07-31T12:18:33;3.33;;;2.00;;
12814;SDS011;6472;52.328;13.070;2023-07-31T12:21:04;3.35;;;2.15;;
12814;SDS011;6472;52.328;13.070;2023-07-31T12:23:33;3.70;;;2.22;;
12814;SDS011;6472;52.328;13.070;2023-07-31T12:26:03;5.15;;;1.98;;
12814;SDS011;6472;52.328;13.070;2023-07-31T12:28:37;1.50;;;1.35;;
12814;SDS011;6472;52.328;13.070;2023-07-31T12:31:08;2.00;;;1.90;;
12814;SDS011;6472;52.328;13.070;2023-07-31T12:33:38;2.75;;;1.77;;
12814;SDS011;6472;52.328;13.070;2023-07-31T12:36:09;2.13;;;1.67;;
12814;SDS011;6472;52.328;13.070;2023-07-31T12:38:38;4.38;;;2.20;;
12814;SDS011;6472;52.328;13.070;2023-07-31T12:41:07;2.15;;;1.90;;
12814;SDS011;6472;52.328;13.070;2023-07-31T12:43:36;1.70;;;1.60;;
12814;SDS011;6472;52.328;13.070;2023-07-31T12:46:05;3.22;;;1.73;;
12814;SDS011;6472;52.328;13.070;2023-07-31T12:48:35;3.72;;;2.05;;
12814;SDS011;6472;52.328;13.070;2023-07-31T12:51:04;2.95;;;1.90;;
12814;SDS011;6472;52.328;13.070;2023-07-31T12:53:35;3.55;;;1.98;;
12814;SDS011;6472;52.328;13.070;2023-07-31T12:56:03;4.05;;;2.53;;
12814;SDS011;6472;52.328;13.070;2023-07-31T12:58:31;4.20;;;2.88;;
12814;SDS011;6472;52.328;13.070;2023-07-31T13:00:59;3.58;;;2.30;;
12814;SDS011;6472;52.328;13.070;2023-07-31T13:03:28;2.15;;;1.83;;
12814;SDS011;6472;52.328;13.070;2023-07-31T13:05:57;3.85;;;2.33;;
12814;SDS011;6472;52.328;13.070;2023-07-31T13:08:25;3.97;;;2.20;;
12814;SDS011;6472;52.328;13.070;2023-07-31T13:10:54;6.25;;;2.35;;
12814;SDS011;6472;52.328;13.070;2023-07-31T13:13:22;2.78;;;2.25;;
12814;SDS011;6472;52.328;13.070;2023-07-31T13:15:50;4.65;;;2.35;;
12814;SDS011;6472;52.328;13.070;2023-07-31T13:18:18;3.45;;;2.40;;
12814;SDS011;6472;52.328;13.070;2023-07-31T13:20:47;4.22;;;1.95;;
12814;SDS011;6472;52.328;13.070;2023-07-31T13:23:15;5.32;;;2.45;;
12814;SDS011;6472;52.328;13.070;2023-07-31T13:25:43;3.00;;;2.22;;
12814;SDS011;6472;52.328;13.070;2023-07-31T13:28:12;4.60;;;2.40;;
12814;SDS011;6472;52.328;13.070;2023-07-31T13:30:41;3.25;;;2.30;;
12814;SDS011;6472;52.328;13.070;2023-07-31T13:33:09;2.13;;;1.90;;
12814;SDS011;6472;52.328;13.070;2023-07-31T13:35:57;3.95;;;2.53;;
12814;SDS011;6472;52.328;13.070;2023-07-31T13:38:25;3.22;;;2.80;;
12814;SDS011;6472;52.328;13.070;2023-07-31T13:40:53;3.67;;;2.38;;
12814;SDS011;6472;52.328;13.070;2023-07-31T13:43:22;3.35;;;2.80;;
12814;SDS011;6472;52.328;13.070;2023-07-31T13:45:50;2.83;;;2.05;;
12814;SDS011;6472;52.328;13.070;2023-07-31T13:48:18;3.78;;;2.25;;
12814;SDS011;6472;52.328;13.070;2023-07-31T13:50:46;5.93;;;2.63;;
12814;SDS011;6472;52.328;13.070;2023-07-31T13:53:14;3.25;;;2.50;;
12814;SDS011;6472;52.328;13.070;2023-07-31T13:55:43;4.63;;;1.92;;
12814;SDS011;6472;52.328;13.070;2023-07-31T13:58:12;3.55;;;2.78;;
12814;SDS011;6472;52.328;13.070;2023-07-31T14:00:41;5.80;;;2.97;;
12814;SDS011;6472;52.328;13.070;2023-07-31T14:03:09;2.97;;;2.15;;
12814;SDS011;6472;52.328;13.070;2023-07-31T14:05:38;2.72;;;2.28;;
12814;SDS011;6472;52.328;13.070;2023-07-31T14:08:06;6.38;;;2.70;;
12814;SDS011;6472;52.328;13.070;2023-07-31T14:10:34;2.60;;;2.40;;
12814;SDS011;6472;52.328;13.070;2023-07-31T14:13:02;2.95;;;2.47;;
12814;SDS011;6472;52.328;13.070;2023-07-31T14:15:30;2.33;;;1.90;;
12814;SDS011;6472;52.328;13.070;2023-07-31T14:18:03;1.67;;;1.58;;
12814;SDS011;6472;52.328;13.070;2023-07-31T14:20:31;2.50;;;2.30;;
12814;SDS011;6472;52.328;13.070;2023-07-31T14:22:59;3.88;;;2.03;;
12814;SDS011;6472;52.328;13.070;2023-07-31T14:25:27;3.25;;;2.33;;
12814;SDS011;6472;52.328;13.070;2023-07-31T14:27:55;2.50;;;2.28;;
12814;SDS011;6472;52.328;13.070;2023-07-31T14:30:24;6.00;;;2.30;;
12814;SDS011;6472;52.328;13.070;2023-07-31T14:32:52;4.07;;;2.47;;
12814;SDS011;6472;52.328;13.070;2023-07-31T14:35:22;2.53;;;2.28;;
12814;SDS011;6472;52.328;13.070;2023-07-31T14:37:50;3.55;;;2.33;;
12814;SDS011;6472;52.328;13.070;2023-07-31T14:40:18;6.28;;;2.55;;
12814;SDS011;6472;52.328;13.070;2023-07-31T14:42:46;3.50;;;2.10;;
12814;SDS011;6472;52.328;13.070;2023-07-31T14:45:14;2.28;;;2.00;;
12814;SDS011;6472;52.328;13.070;2023-07-31T14:47:42;2.60;;;2.30;;
12814;SDS011;6472;52.328;13.070;2023-07-31T14:50:10;3.03;;;2.42;;
12814;SDS011;6472;52.328;13.070;2023-07-31T14:52:39;2.45;;;2.17;;
12814;SDS011;6472;52.328;13.070;2023-07-31T14:55:07;2.70;;;1.90;;
12814;SDS011;6472;52.328;13.070;2023-07-31T14:57:35;4.22;;;2.58;;
12814;SDS011;6472;52.328;13.070;2023-07-31T15:00:04;3.63;;;2.60;;
12814;SDS011;6472;52.328;13.070;2023-07-31T15:02:34;4.10;;;2.47;;
12814;SDS011;6472;52.328;13.070;2023-07-31T15:05:02;2.33;;;2.13;;